Forside
METAR-TAF:

METAR-TAF

Lufthavne :

South Wood County Airport (Alexander Field)

Wisconsin Rapids, Wisconsin, USA

Breddekreds: 44-21-33N, længdekreds: 089-50-13W, højde: 311 m

Aktuelle vejr

Denne rapport blev lavet for 16 minutter siden, kl. 00:54 UTC
Vind 4 kt fra vestsydvest
Temperatur -16°C
Fugtighed 78%
Tryk 1023 hPa
Sigt: 16.1 km
skyfri

METAR: KISW 110054Z AUTO 25004KT 10SM CLR M16/M19 A3021 RMK AO2 SLP256 T11611194

Tid: 19:10 (01:10 UTC)


TAF: fraværende

Vejrobservationer og prognoser fra mere end 4000 lufthavne (METAR og TAF).

De gule og røde prikker repræsenterer de meteorologiske stationer.

Flyt musen over at se navnet på stationen.

Så klik over at se vejr observationer og prognoser.

At skifte det kort: Klik på de grønne knapper med et sort kors for at zoome ind; på den grønne knap med en bindestreg for at zoome ud; eller på de grønne pile for tilstødende kort.


METAR-TAF: